CP2737 SLCB-SLCB
Flight info
| Callsign | CP2737 |
|---|---|
| Flight time | 0h 5m |
| Altitude | 10000 |
| Route | SLCB TO SLCB TAG |
| Aircraft | C172/L-N/3224 |
Departure
| Time | 2026-04-25 02:37 |
|---|---|
| Airport | Jorge Wilsterman International Airport (SLCB) |
Arrival
| Time | 2026-04-25 02:42 |
|---|---|
| Airport | Jorge Wilsterman International Airport (SLCB) |
| Time | Latitude | Longitude | Altitude | Speed | Heading |
|---|---|---|---|---|---|
| 2026-04-25 02:23 | -17.41565 | -66.17144 | 8361 ft | 0 kts | 115° |
| 2026-04-25 02:25 | -17.41561 | -66.17154 | 8361 ft | 3 kts | 115° |
| 2026-04-25 02:25 | -17.41559 | -66.17157 | 8361 ft | 0 kts | 115° |
| 2026-04-25 02:30 | -17.41570 | -66.17151 | 8361 ft | 2 kts | 198° |
| 2026-04-25 02:30 | -17.41579 | -66.17171 | 8361 ft | 4 kts | 266° |
| 2026-04-25 02:31 | -17.41577 | -66.17181 | 8361 ft | 0 kts | 297° |
| 2026-04-25 02:32 | -17.41553 | -66.17221 | 8361 ft | 10 kts | 308° |
| 2026-04-25 02:32 | -17.41472 | -66.17202 | 8362 ft | 18 kts | 32° |
| 2026-04-25 02:32 | -17.41339 | -66.17115 | 8365 ft | 25 kts | 0° |
| 2026-04-25 02:32 | -17.41169 | -66.17164 | 8363 ft | 23 kts | 8° |
| 2026-04-25 02:33 | -17.41104 | -66.17072 | 8364 ft | 0 kts | 85° |
| 2026-04-25 02:34 | -17.41102 | -66.17057 | 8364 ft | 10 kts | 85° |
| 2026-04-25 02:35 | -17.41087 | -66.16929 | 8366 ft | 20 kts | 109° |
| 2026-04-25 02:35 | -17.41187 | -66.16975 | 8366 ft | 29 kts | 217° |
| 2026-04-25 02:35 | -17.41434 | -66.17172 | 8363 ft | 60 kts | 217° |
| 2026-04-25 02:35 | -17.41836 | -66.17491 | 8365 ft | 82 kts | 218° |
| 2026-04-25 02:36 | -17.42313 | -66.17867 | 8415 ft | 89 kts | 218° |
| 2026-04-25 02:36 | -17.42804 | -66.18276 | 8517 ft | 86 kts | 220° |
| 2026-04-25 02:36 | -17.43263 | -66.18655 | 8635 ft | 84 kts | 219° |
| 2026-04-25 02:36 | -17.43716 | -66.19026 | 8751 ft | 81 kts | 219° |
| 2026-04-25 02:37 | -17.44198 | -66.19334 | 8838 ft | 81 kts | 192° |
| 2026-04-25 02:37 | -17.44657 | -66.19043 | 8885 ft | 86 kts | 124° |
| 2026-04-25 02:37 | -17.44993 | -66.18544 | 8999 ft | 84 kts | 126° |
| 2026-04-25 02:37 | -17.45343 | -66.18048 | 9101 ft | 83 kts | 126° |
| 2026-04-25 02:38 | -17.45397 | -66.17471 | 9178 ft | 85 kts | 59° |
| 2026-04-25 02:38 | -17.44951 | -66.17081 | 9253 ft | 84 kts | 36° |
| 2026-04-25 02:38 | -17.44470 | -66.16733 | 9349 ft | 86 kts | 34° |
| 2026-04-25 02:38 | -17.43979 | -66.16372 | 9435 ft | 87 kts | 34° |
| 2026-04-25 02:39 | -17.43474 | -66.15996 | 9493 ft | 93 kts | 33° |
| 2026-04-25 02:39 | -17.42914 | -66.15594 | 9509 ft | 100 kts | 36° |
| 2026-04-25 02:39 | -17.42357 | -66.15203 | 9548 ft | 93 kts | 35° |
| 2026-04-25 02:39 | -17.41826 | -66.14825 | 9499 ft | 93 kts | 32° |
| 2026-04-25 02:40 | -17.41270 | -66.14452 | 9406 ft | 96 kts | 32° |
| 2026-04-25 02:40 | -17.40709 | -66.14085 | 9337 ft | 89 kts | 31° |
| 2026-04-25 02:40 | -17.40172 | -66.13845 | 9178 ft | 85 kts | 354° |
| 2026-04-25 02:40 | -17.39710 | -66.14178 | 9069 ft | 83 kts | 312° |
| 2026-04-25 02:41 | -17.39335 | -66.14615 | 8994 ft | 78 kts | 309° |
| 2026-04-25 02:41 | -17.39087 | -66.15102 | 8870 ft | 77 kts | 274° |
| 2026-04-25 02:41 | -17.39377 | -66.15552 | 8753 ft | 80 kts | 210° |
| 2026-04-25 02:41 | -17.39815 | -66.15878 | 8696 ft | 77 kts | 218° |
| 2026-04-25 02:42 | -17.40237 | -66.16214 | 8636 ft | 78 kts | 219° |
| 2026-04-25 02:42 | -17.40654 | -66.16549 | 8515 ft | 72 kts | 218° |
| 2026-04-25 02:42 | -17.41019 | -66.16841 | 8400 ft | 62 kts | 217° |
| 2026-04-25 02:42 | -17.41329 | -66.17089 | 8365 ft | 49 kts | 218° |
| 2026-04-25 02:43 | -17.41626 | -66.17326 | 8360 ft | 66 kts | 217° |
| 2026-04-25 02:43 | -17.42046 | -66.17666 | 8382 ft | 83 kts | 217° |
| 2026-04-25 02:43 | -17.42519 | -66.18035 | 8453 ft | 86 kts | 218° |
| 2026-04-25 02:43 | -17.42987 | -66.18400 | 8556 ft | 85 kts | 216° |
| 2026-04-25 02:44 | -17.43473 | -66.18748 | 8648 ft | 86 kts | 214° |
| 2026-04-25 02:44 | -17.43960 | -66.19062 | 8768 ft | 82 kts | 210° |
| 2026-04-25 02:44 | -17.44321 | -66.19509 | 8825 ft | 86 kts | 263° |
| 2026-04-25 02:44 | -17.44089 | -66.20072 | 8887 ft | 89 kts | 307° |
| 2026-04-25 02:45 | -17.43703 | -66.20582 | 8997 ft | 88 kts | 308° |
| 2026-04-25 02:45 | -17.43329 | -66.21095 | 9089 ft | 89 kts | 305° |
| 2026-04-25 02:45 | -17.42965 | -66.21599 | 9224 ft | 86 kts | 306° |
| 2026-04-25 02:45 | -17.42517 | -66.22021 | 9253 ft | 94 kts | 345° |
| 2026-04-25 02:46 | -17.41910 | -66.21760 | 9279 ft | 100 kts | 37° |
| 2026-04-25 02:46 | -17.41361 | -66.21290 | 9322 ft | 105 kts | 39° |
| 2026-04-25 02:46 | -17.40797 | -66.20780 | 9359 ft | 108 kts | 40° |
| 2026-04-25 02:46 | -17.40241 | -66.20285 | 9491 ft | 102 kts | 39° |
| 2026-04-25 02:47 | -17.39667 | -66.19806 | 9496 ft | 107 kts | 36° |
| 2026-04-25 02:47 | -17.39084 | -66.19344 | 9467 ft | 102 kts | 37° |
| 2026-04-25 02:47 | -17.38539 | -66.18874 | 9394 ft | 102 kts | 41° |
| 2026-04-25 02:47 | -17.38036 | -66.18384 | 9367 ft | 97 kts | 44° |
| 2026-04-25 02:48 | -17.37595 | -66.17893 | 9316 ft | 87 kts | 47° |
| 2026-04-25 02:48 | -17.37338 | -66.17375 | 9206 ft | 83 kts | 97° |
| 2026-04-25 02:48 | -17.37563 | -66.16831 | 9159 ft | 83 kts | 127° |
| 2026-04-25 02:48 | -17.37937 | -66.16366 | 9128 ft | 80 kts | 132° |
| 2026-04-25 02:49 | -17.38297 | -66.15943 | 9083 ft | 78 kts | 132° |
| 2026-04-25 02:49 | -17.38676 | -66.15536 | 9013 ft | 79 kts | 147° |
| 2026-04-25 02:49 | -17.39221 | -66.15545 | 8886 ft | 84 kts | 207° |
| 2026-04-25 02:49 | -17.39735 | -66.15861 | 8787 ft | 86 kts | 216° |
| 2026-04-25 02:50 | -17.40216 | -66.16217 | 8673 ft | 82 kts | 217° |
| 2026-04-25 02:50 | -17.40668 | -66.16561 | 8538 ft | 79 kts | 216° |
| 2026-04-25 02:50 | -17.41086 | -66.16897 | 8411 ft | 71 kts | 218° |
| 2026-04-25 02:50 | -17.41423 | -66.17167 | 8364 ft | 51 kts | 219° |
| 2026-04-25 02:51 | -17.41706 | -66.17389 | 8358 ft | 60 kts | 218° |
| 2026-04-25 02:51 | -17.42106 | -66.17709 | 8373 ft | 80 kts | 217° |
| 2026-04-25 02:51 | -17.42544 | -66.18049 | 8468 ft | 81 kts | 216° |
| 2026-04-25 02:51 | -17.43026 | -66.18407 | 8486 ft | 90 kts | 214° |
| 2026-04-25 02:52 | -17.43533 | -66.18755 | 8547 ft | 94 kts | 213° |
| 2026-04-25 02:52 | -17.44004 | -66.19057 | 8821 ft | 68 kts | 209° |
| 2026-04-25 02:52 | -17.44423 | -66.19289 | 8882 ft | 67 kts | 204° |
| 2026-04-25 02:52 | -17.44916 | -66.19107 | 8787 ft | 92 kts | 119° |
| 2026-04-25 02:53 | -17.45270 | -66.18587 | 8908 ft | 89 kts | 124° |
| 2026-04-25 02:53 | -17.45542 | -66.18096 | 9122 ft | 71 kts | 115° |
| 2026-04-25 02:53 | -17.45815 | -66.17484 | 8901 ft | 109 kts | 106° |
| 2026-04-25 02:53 | -17.45476 | -66.16931 | 8993 ft | 103 kts | 24° |
| 2026-04-25 02:54 | -17.44801 | -66.16616 | 9048 ft | 105 kts | 18° |
| 2026-04-25 02:54 | -17.44116 | -66.16504 | 9175 ft | 97 kts | 22° |
| 2026-04-25 02:54 | -17.43598 | -66.16089 | 9311 ft | 92 kts | 35° |
| 2026-04-25 02:54 | -17.43099 | -66.15689 | 9435 ft | 89 kts | 36° |
| 2026-04-25 02:55 | -17.42616 | -66.15298 | 9555 ft | 87 kts | 36° |
| 2026-04-25 02:55 | -17.42106 | -66.14887 | 9585 ft | 97 kts | 36° |
| 2026-04-25 02:55 | -17.41590 | -66.14408 | 9614 ft | 102 kts | 58° |
| 2026-04-25 02:55 | -17.41387 | -66.13698 | 9641 ft | 106 kts | 99° |
| 2026-04-25 02:56 | -17.41585 | -66.12948 | 9679 ft | 108 kts | 104° |
| 2026-04-25 02:56 | -17.41781 | -66.12178 | 9733 ft | 109 kts | 105° |
| 2026-04-25 02:56 | -17.41976 | -66.11410 | 9815 ft | 109 kts | 104° |
| 2026-04-25 02:56 | -17.42167 | -66.10659 | 9888 ft | 108 kts | 105° |
| 2026-04-25 02:57 | -17.42361 | -66.09899 | 9960 ft | 107 kts | 104° |
| 2026-04-25 02:57 | -17.42551 | -66.09151 | 10032 ft | 106 kts | 105° |
| 2026-04-25 02:57 | -17.42739 | -66.08408 | 10105 ft | 105 kts | 104° |
| 2026-04-25 02:57 | -17.42926 | -66.07672 | 10178 ft | 104 kts | 104° |
| 2026-04-25 02:58 | -17.43110 | -66.06942 | 10251 ft | 103 kts | 104° |
| 2026-04-25 02:58 | -17.43292 | -66.06218 | 10323 ft | 103 kts | 104° |
| 2026-04-25 02:58 | -17.43474 | -66.05496 | 10396 ft | 102 kts | 104° |
| 2026-04-25 02:58 | -17.43654 | -66.04779 | 10471 ft | 101 kts | 104° |
| 2026-04-25 02:59 | -17.43812 | -66.04146 | 10717 ft | 80 kts | 104° |
| 2026-04-25 02:59 | -17.43940 | -66.03646 | 10850 ft | 65 kts | 103° |
| 2026-04-25 02:59 | -17.44045 | -66.03259 | 10789 ft | 79 kts | 105° |
| 2026-04-25 02:59 | -17.44176 | -66.02762 | 10715 ft | 96 kts | 105° |
| 2026-04-25 03:00 | -17.44131 | -66.02041 | 10626 ft | 110 kts | 50° |
| 2026-04-25 03:00 | -17.43416 | -66.01753 | 10545 ft | 117 kts | 354° |
| 2026-04-25 03:00 | -17.42819 | -66.02283 | 10447 ft | 122 kts | 284° |
| 2026-04-25 03:00 | -17.43075 | -66.03104 | 10346 ft | 125 kts | 229° |
| 2026-04-25 03:01 | -17.43276 | -66.03956 | 10222 ft | 129 kts | 288° |
| 2026-04-25 03:01 | -17.42841 | -66.04764 | 10141 ft | 128 kts | 301° |
| 2026-04-25 03:01 | -17.42390 | -66.05548 | 10197 ft | 121 kts | 300° |
| 2026-04-25 03:01 | -17.41971 | -66.06275 | 10243 ft | 116 kts | 300° |
| 2026-04-25 03:02 | -17.41666 | -66.07031 | 10286 ft | 112 kts | 272° |
| 2026-04-25 03:02 | -17.41653 | -66.07778 | 10329 ft | 110 kts | 271° |
| 2026-04-25 03:02 | -17.41967 | -66.08451 | 10375 ft | 107 kts | 218° |
| 2026-04-25 03:02 | -17.42366 | -66.08773 | 10406 ft | 107 kts | 219° |
| 2026-04-25 03:03 | -17.42948 | -66.09266 | 10454 ft | 108 kts | 219° |
| 2026-04-25 03:03 | -17.43384 | -66.09869 | 10494 ft | 105 kts | 250° |
| 2026-04-25 03:03 | -17.43649 | -66.10582 | 10547 ft | 106 kts | 248° |
| 2026-04-25 03:03 | -17.43917 | -66.11283 | 10584 ft | 97 kts | 249° |
| 2026-04-25 03:04 | -17.44057 | -66.11936 | 10353 ft | 98 kts | 270° |
| 2026-04-25 03:04 | -17.43964 | -66.12653 | 10043 ft | 98 kts | 291° |
| 2026-04-25 03:04 | -17.43845 | -66.13345 | 9690 ft | 95 kts | 288° |
| 2026-04-25 03:05 | -17.43657 | -66.14628 | 9187 ft | 83 kts | 290° |
| 2026-04-25 03:05 | -17.43528 | -66.15221 | 8972 ft | 83 kts | 293° |
| 2026-04-25 03:05 | -17.43385 | -66.15769 | 8770 ft | 72 kts | 301° |
| 2026-04-25 03:05 | -17.43192 | -66.16241 | 8556 ft | 71 kts | 309° |
| 2026-04-25 03:06 | -17.42964 | -66.16684 | 8406 ft | 67 kts | 313° |
| 2026-04-25 03:06 | -17.42709 | -66.17017 | 8356 ft | 50 kts | 311° |
| 2026-04-25 03:06 | -17.42496 | -66.17265 | 8356 ft | 43 kts | 313° |
| 2026-04-25 03:06 | -17.42306 | -66.17492 | 8357 ft | 42 kts | 307° |
| 2026-04-25 03:07 | -17.42096 | -66.17728 | 8358 ft | 47 kts | 311° |
| 2026-04-25 03:07 | -17.41919 | -66.17925 | 8356 ft | 14 kts | 323° |
| 2026-04-25 03:07 | -17.41854 | -66.17984 | 8356 ft | 12 kts | 350° |
| 2026-04-25 03:07 | -17.41773 | -66.17975 | 8355 ft | 12 kts | 18° |
| 2026-04-25 03:08 | -17.41693 | -66.17941 | 8356 ft | 12 kts | 22° |
| 2026-04-25 03:08 | -17.41627 | -66.17914 | 8356 ft | 9 kts | 13° |
| 2026-04-25 03:08 | -17.41574 | -66.17945 | 8356 ft | 9 kts | 312° |
| 2026-04-25 03:08 | -17.41520 | -66.17928 | 8356 ft | 9 kts | 41° |
| 2026-04-25 03:09 | -17.41503 | -66.17910 | 8357 ft | 0 kts | 43° |
| 2026-04-25 03:09 | -17.41499 | -66.17907 | 8357 ft | 2 kts | 36° |
| 2026-04-25 03:09 | -17.41498 | -66.17907 | 8357 ft | 0 kts | 37° |